createdAt,value
2022-09-15T00:01:27.947Z,3.70
2022-09-15T00:03:56.000Z,3.80
2022-09-15T00:06:24.168Z,4.00
2022-09-15T00:08:52.135Z,4.10
2022-09-15T00:11:24.203Z,3.50
2022-09-15T00:13:53.598Z,4.00
2022-09-15T00:16:24.569Z,3.60
2022-09-15T00:18:53.063Z,3.60
2022-09-15T00:21:24.790Z,3.60
2022-09-15T00:23:52.912Z,3.20
2022-09-15T00:26:29.105Z,3.00
2022-09-15T00:28:58.713Z,3.20
2022-09-15T00:31:29.001Z,3.20
2022-09-15T00:33:58.846Z,3.30
2022-09-15T00:36:27.230Z,3.10
2022-09-15T00:38:55.570Z,3.10
2022-09-15T00:41:24.637Z,2.90
2022-09-15T00:43:55.743Z,2.90
2022-09-15T00:46:40.809Z,3.00
2022-09-15T00:49:20.758Z,3.70
2022-09-15T00:52:03.645Z,3.10
2022-09-15T00:54:37.786Z,2.90
2022-09-15T00:57:12.409Z,2.70
2022-09-15T00:59:43.086Z,3.20
2022-09-15T01:02:16.540Z,3.60
2022-09-15T01:04:44.846Z,2.80
2022-09-15T01:07:17.292Z,3.10
2022-09-15T01:09:56.231Z,2.90
2022-09-15T01:12:26.026Z,3.00
2022-09-15T01:14:54.097Z,3.50
2022-09-15T01:17:43.099Z,3.10
2022-09-15T01:20:26.277Z,3.10
2022-09-15T01:23:21.998Z,3.50
2022-09-15T01:26:28.895Z,3.30
2022-09-15T01:29:21.805Z,3.10
2022-09-15T01:32:22.057Z,2.80
2022-09-15T01:34:58.198Z,3.50
2022-09-15T01:37:32.839Z,3.20
2022-09-15T01:40:03.544Z,2.80
2022-09-15T01:42:33.669Z,2.90
2022-09-15T01:45:08.921Z,2.60
2022-09-15T01:47:37.669Z,2.90
2022-09-15T01:50:08.759Z,2.90
2022-09-15T01:52:41.265Z,3.60
2022-09-15T01:55:20.569Z,2.80
2022-09-15T01:57:49.326Z,2.50
2022-09-15T02:00:17.526Z,3.10
2022-09-15T02:02:59.935Z,2.70
2022-09-15T02:05:36.194Z,2.50
2022-09-15T02:08:16.114Z,3.00
2022-09-15T02:10:51.690Z,2.70
2022-09-15T02:13:28.160Z,3.10
2022-09-15T02:16:00.401Z,3.00
2022-09-15T02:18:45.467Z,2.70
2022-09-15T02:21:23.599Z,3.20
2022-09-15T02:23:57.522Z,3.50
2022-09-15T02:26:28.551Z,3.50
2022-09-15T02:29:00.520Z,3.60
2022-09-15T02:31:31.584Z,3.50
2022-09-15T02:34:06.995Z,3.20
2022-09-15T02:36:35.145Z,3.30
2022-09-15T02:39:09.423Z,3.20
2022-09-15T02:41:39.207Z,3.20
2022-09-15T02:44:09.205Z,2.90
2022-09-15T02:46:37.484Z,3.10
2022-09-15T02:49:05.863Z,3.20
2022-09-15T02:51:34.244Z,3.30
2022-09-15T02:54:02.723Z,3.30
2022-09-15T02:56:30.688Z,2.90
2022-09-15T02:58:58.759Z,3.10
2022-09-15T03:01:34.793Z,3.30
2022-09-15T03:04:04.346Z,3.20
2022-09-15T03:06:35.362Z,2.90
2022-09-15T03:09:08.144Z,3.00
2022-09-15T03:11:37.239Z,2.90
2022-09-15T03:14:06.910Z,3.10
2022-09-15T03:16:35.936Z,3.10
2022-09-15T03:19:04.944Z,3.30
2022-09-15T03:21:33.211Z,3.20
2022-09-15T03:24:01.285Z,3.40
2022-09-15T03:26:29.464Z,3.20
2022-09-15T03:28:57.523Z,3.20
2022-09-15T03:31:25.750Z,3.30
2022-09-15T03:33:56.202Z,3.50
2022-09-15T03:36:24.313Z,4.00
2022-09-15T03:38:53.017Z,4.10
2022-09-15T03:41:21.259Z,3.80
2022-09-15T03:43:49.529Z,4.30
2022-09-15T03:46:18.263Z,4.20
2022-09-15T03:48:47.693Z,4.50
2022-09-15T03:51:15.787Z,4.40
2022-09-15T03:53:43.960Z,4.60
2022-09-15T03:56:19.231Z,5.20
2022-09-15T03:58:47.240Z,4.50
2022-09-15T04:01:15.392Z,4.50
2022-09-15T04:03:47.583Z,4.30
2022-09-15T04:06:20.288Z,4.60
2022-09-15T04:08:49.902Z,5.10
2022-09-15T04:11:19.296Z,4.90
2022-09-15T04:13:48.391Z,4.70
2022-09-15T04:16:19.632Z,4.10
2022-09-15T04:18:47.705Z,4.10
2022-09-15T04:21:19.089Z,4.30
2022-09-15T04:23:47.749Z,4.30
2022-09-15T04:26:34.139Z,4.20
2022-09-15T04:29:04.952Z,4.00
2022-09-15T04:31:34.135Z,3.40
2022-09-15T04:34:02.452Z,3.90
2022-09-15T04:36:31.986Z,3.20
2022-09-15T04:39:00.374Z,3.50
2022-09-15T04:41:28.912Z,3.60
2022-09-15T04:43:57.171Z,3.90
2022-09-15T04:46:26.139Z,3.40
2022-09-15T04:48:54.556Z,3.40
2022-09-15T04:51:24.042Z,3.40
2022-09-15T04:53:52.295Z,3.40
2022-09-15T04:56:23.394Z,3.10
2022-09-15T04:59:02.413Z,3.40
2022-09-15T05:01:35.393Z,3.30
2022-09-15T05:04:04.307Z,3.40
2022-09-15T05:06:33.533Z,3.30
2022-09-15T05:09:09.061Z,3.40
2022-09-15T05:11:38.797Z,3.20
2022-09-15T05:14:07.212Z,3.50
2022-09-15T05:16:35.607Z,3.50
2022-09-15T05:19:04.825Z,2.90
2022-09-15T05:21:33.163Z,3.50
2022-09-15T05:24:01.518Z,3.00
2022-09-15T05:26:30.373Z,3.20
2022-09-15T05:28:58.399Z,2.90
2022-09-15T05:31:31.187Z,2.90
2022-09-15T05:34:04.834Z,3.50
2022-09-15T05:36:33.177Z,3.40
2022-09-15T05:39:02.019Z,3.30
2022-09-15T05:41:30.811Z,3.00
2022-09-15T05:43:59.359Z,3.10
2022-09-15T05:46:29.341Z,2.80
2022-09-15T05:48:58.841Z,3.20
2022-09-15T05:51:27.760Z,3.50
2022-09-15T05:53:56.105Z,2.90
2022-09-15T05:56:24.578Z,3.10
2022-09-15T05:58:52.689Z,2.80
2022-09-15T06:01:23.712Z,3.20
2022-09-15T06:03:53.027Z,3.10
2022-09-15T06:06:22.298Z,2.90
2022-09-15T06:08:58.137Z,3.00
2022-09-15T06:11:29.803Z,3.00
2022-09-15T06:14:03.362Z,3.10
2022-09-15T06:16:34.335Z,3.10
2022-09-15T06:19:03.495Z,2.70
2022-09-15T06:21:33.009Z,3.10
2022-09-15T06:24:07.434Z,4.00
2022-09-15T06:26:35.637Z,2.90
2022-09-15T06:29:05.353Z,3.70
2022-09-15T06:31:35.784Z,3.30
2022-09-15T06:36:50.849Z,3.50
2022-09-15T06:39:19.356Z,3.30
2022-09-15T06:42:01.836Z,2.90
2022-09-15T06:44:30.734Z,3.30
2022-09-15T06:46:58.902Z,2.60
2022-09-15T06:49:27.546Z,3.00
2022-09-15T06:51:56.544Z,2.70
2022-09-15T06:54:24.855Z,2.50
2022-09-15T06:56:53.163Z,2.80
2022-09-15T06:59:24.067Z,2.50
2022-09-15T07:02:02.638Z,2.50
2022-09-15T07:04:37.207Z,2.20
2022-09-15T07:07:05.384Z,2.30
2022-09-15T07:09:33.454Z,2.60
2022-09-15T07:12:01.740Z,2.60
2022-09-15T07:14:30.926Z,2.30
2022-09-15T07:16:58.997Z,2.80
2022-09-15T07:19:27.285Z,2.30
2022-09-15T07:21:55.338Z,2.70
2022-09-15T07:24:23.310Z,2.30
2022-09-15T07:26:52.295Z,2.60
2022-09-15T07:29:20.584Z,2.50
2022-09-15T07:31:49.008Z,2.70
2022-09-15T07:34:17.759Z,2.50
2022-09-15T07:36:45.814Z,2.50
2022-09-15T07:39:14.186Z,2.70
2022-09-15T07:41:42.259Z,2.90
2022-09-15T07:44:13.246Z,4.20
2022-09-15T07:46:41.267Z,3.10
2022-09-15T07:49:10.871Z,3.10
2022-09-15T07:51:38.941Z,3.20
2022-09-15T07:54:07.523Z,2.60
2022-09-15T07:56:35.696Z,3.00
2022-09-15T07:59:03.876Z,2.50
2022-09-15T08:01:31.831Z,2.30
2022-09-15T08:03:59.909Z,3.10
2022-09-15T08:06:28.389Z,2.00
2022-09-15T08:09:00.468Z,2.00
2022-09-15T08:11:30.094Z,1.90
2022-09-15T08:14:01.477Z,2.40
2022-09-15T08:16:29.973Z,1.90
2022-09-15T08:18:58.913Z,2.40
2022-09-15T08:21:28.077Z,2.30
2022-09-15T08:23:58.807Z,3.90
2022-09-15T08:26:28.943Z,3.50
2022-09-15T08:28:58.193Z,2.40
2022-09-15T08:31:26.611Z,2.10
2022-09-15T08:33:56.128Z,2.20
2022-09-15T08:36:28.153Z,2.20
2022-09-15T08:38:56.994Z,2.10
2022-09-15T08:41:33.980Z,1.80
2022-09-15T08:44:34.166Z,1.90
2022-09-15T08:47:05.665Z,1.70
2022-09-15T08:49:51.669Z,1.80
2022-09-15T08:52:27.131Z,1.80
2022-09-15T08:54:59.009Z,2.30
2022-09-15T08:57:27.598Z,2.30
2022-09-15T08:59:56.283Z,2.20
2022-09-15T09:02:50.738Z,1.90
2022-09-15T09:05:37.474Z,2.10
2022-09-15T09:08:26.449Z,1.70
2022-09-15T09:11:03.413Z,2.10
2022-09-15T09:13:53.178Z,2.00
2022-09-15T09:17:00.480Z,2.00
2022-09-15T09:19:40.025Z,2.20
2022-09-15T09:22:23.264Z,1.80
2022-09-15T09:24:55.725Z,1.90
2022-09-15T09:27:28.992Z,1.80
2022-09-15T09:30:23.317Z,1.60
2022-09-15T09:33:05.318Z,1.50
2022-09-15T09:35:49.854Z,1.60
2022-09-15T09:38:32.776Z,1.80
2022-09-15T09:41:02.670Z,1.90
2022-09-15T09:43:32.503Z,1.80
2022-09-15T09:46:01.013Z,2.30
2022-09-15T09:48:30.516Z,3.80
2022-09-15T09:50:58.658Z,4.40
2022-09-15T09:53:32.324Z,4.80
2022-09-15T09:56:24.768Z,1.90
2022-09-15T09:58:54.856Z,1.70
2022-09-15T10:01:26.336Z,1.90
2022-09-15T10:04:21.433Z,1.60
2022-09-15T10:06:50.157Z,1.50
2022-09-15T10:09:19.602Z,5.30
2022-09-15T10:11:55.009Z,1.60
2022-09-15T10:14:30.962Z,1.70
2022-09-15T10:17:13.987Z,1.90
2022-09-15T10:19:47.165Z,2.20
2022-09-15T10:22:27.627Z,1.90
2022-09-15T10:24:55.903Z,1.60
2022-09-15T10:27:28.994Z,1.90
2022-09-15T10:30:16.009Z,1.40
2022-09-15T10:32:44.895Z,1.80
2022-09-15T10:35:20.860Z,2.00
2022-09-15T10:38:03.839Z,2.20
2022-09-15T10:40:37.557Z,1.80
2022-09-15T10:43:24.505Z,1.30
2022-09-15T10:46:04.407Z,3.00
2022-09-15T10:49:03.532Z,3.60
2022-09-15T10:51:31.424Z,1.60
2022-09-15T10:54:16.984Z,1.50
2022-09-15T10:56:50.065Z,1.80
2022-09-15T10:59:25.156Z,1.70
2022-09-15T11:02:10.976Z,1.60
2022-09-15T11:05:11.824Z,1.30
2022-09-15T11:07:54.371Z,1.50
2022-09-15T11:10:28.645Z,1.30
2022-09-15T11:12:57.176Z,1.40
2022-09-15T11:15:37.500Z,0.90
2022-09-15T11:18:26.956Z,1.30
2022-09-15T11:21:27.293Z,1.00
2022-09-15T11:24:13.486Z,1.10
2022-09-15T11:26:45.770Z,1.70
2022-09-15T11:29:26.342Z,1.50
2022-09-15T11:32:26.136Z,1.30
2022-09-15T11:35:00.882Z,1.60
2022-09-15T11:37:45.513Z,1.80
2022-09-15T11:40:20.242Z,1.30
2022-09-15T11:43:03.168Z,1.20
2022-09-15T11:45:38.607Z,1.30
2022-09-15T11:48:28.687Z,1.20
2022-09-15T11:51:00.221Z,1.20
2022-09-15T11:53:35.647Z,1.20
2022-09-15T11:56:28.949Z,1.60
2022-09-15T11:59:27.738Z,1.30
2022-09-15T12:02:23.657Z,1.30
2022-09-15T12:05:09.780Z,1.10
2022-09-15T12:07:51.444Z,1.50
2022-09-15T12:10:25.966Z,1.40
2022-09-15T12:12:54.612Z,1.30
2022-09-15T12:15:27.504Z,0.90
2022-09-15T12:18:21.358Z,1.20
2022-09-15T12:21:11.613Z,1.30
2022-09-15T12:23:51.273Z,1.00
2022-09-15T12:26:21.989Z,1.30
2022-09-15T12:28:59.262Z,1.40
2022-09-15T12:31:30.042Z,1.70
2022-09-15T12:33:59.679Z,1.20
2022-09-15T12:36:44.772Z,1.20
2022-09-15T12:39:23.360Z,1.10
2022-09-15T12:42:00.452Z,2.00
2022-09-15T12:44:36.380Z,1.30
2022-09-15T12:47:08.110Z,1.40
2022-09-15T12:49:43.732Z,1.30
2022-09-15T12:52:12.828Z,1.50
2022-09-15T12:54:45.422Z,1.40
2022-09-15T12:57:36.714Z,1.10
2022-09-15T13:00:31.251Z,1.20
2022-09-15T13:03:00.584Z,1.10
2022-09-15T13:05:53.123Z,1.20
2022-09-15T13:08:24.912Z,1.00
2022-09-15T13:11:11.601Z,1.10
2022-09-15T13:14:10.748Z,1.40
2022-09-15T13:16:41.655Z,1.10
2022-09-15T13:19:30.537Z,1.30
2022-09-15T13:22:01.810Z,1.00
2022-09-15T13:24:32.649Z,0.90
2022-09-15T13:27:02.704Z,1.20
2022-09-15T13:29:33.105Z,1.10
2022-09-15T13:32:23.735Z,1.10
2022-09-15T13:35:18.126Z,0.80
2022-09-15T13:38:22.998Z,0.70
2022-09-15T13:41:03.478Z,0.80
2022-09-15T13:43:58.995Z,0.80
2022-09-15T13:46:45.178Z,0.90
2022-09-15T13:49:42.336Z,0.90
2022-09-15T13:52:22.548Z,1.00
2022-09-15T13:55:35.449Z,0.80
2022-09-15T14:01:06.799Z,0.80
2022-09-15T14:04:09.124Z,0.80
2022-09-15T14:06:40.629Z,1.10
2022-09-15T14:09:28.402Z,0.70
2022-09-15T14:12:02.260Z,0.80
2022-09-15T14:14:41.204Z,1.00
2022-09-15T14:17:27.382Z,0.60
2022-09-15T14:19:58.434Z,0.80
2022-09-15T14:22:31.748Z,0.70
2022-09-15T14:25:05.355Z,0.70
2022-09-15T14:27:35.658Z,1.00
2022-09-15T14:30:07.748Z,1.00
2022-09-15T14:32:40.009Z,0.60
2022-09-15T14:35:16.014Z,0.90
2022-09-15T14:37:55.443Z,0.80
2022-09-15T14:40:29.389Z,0.60
2022-09-15T14:42:58.480Z,1.30
2022-09-15T14:48:30.810Z,0.90
2022-09-15T14:51:05.103Z,0.90
2022-09-15T14:53:37.789Z,1.10
2022-09-15T14:56:12.334Z,1.20
2022-09-15T14:59:05.054Z,1.00
2022-09-15T15:01:40.218Z,1.20
2022-09-15T15:04:17.366Z,1.10
2022-09-15T15:07:09.646Z,1.00
2022-09-15T15:09:47.028Z,1.10
2022-09-15T15:12:23.818Z,1.20
2022-09-15T15:14:56.372Z,0.80
2022-09-15T15:17:25.143Z,1.40
2022-09-15T15:20:16.181Z,0.90
2022-09-15T15:22:45.817Z,1.20
2022-09-15T15:25:22.331Z,1.10
2022-09-15T15:27:56.049Z,1.00
2022-09-15T15:30:30.704Z,1.00
2022-09-15T15:33:05.128Z,1.30
2022-09-15T15:35:35.869Z,1.50
2022-09-15T15:38:09.921Z,1.20
2022-09-15T15:40:40.831Z,1.20
2022-09-15T15:43:26.539Z,0.70
2022-09-15T15:46:01.411Z,0.70
2022-09-15T15:48:38.239Z,1.00
2022-09-15T15:51:07.779Z,1.30
2022-09-15T15:53:35.910Z,1.40
2022-09-15T15:56:03.953Z,1.40
2022-09-15T15:58:31.918Z,1.60
2022-09-15T16:01:00.577Z,1.50
2022-09-15T16:03:28.803Z,1.70
2022-09-15T16:06:00.457Z,1.50
2022-09-15T16:08:32.120Z,1.60
2022-09-15T16:11:02.554Z,1.90
2022-09-15T16:13:31.429Z,2.20
2022-09-15T16:16:01.352Z,1.70
2022-09-15T16:18:29.784Z,1.50
2022-09-15T16:20:57.992Z,1.20
2022-09-15T16:23:26.030Z,1.30
2022-09-15T16:26:04.521Z,1.40
2022-09-15T16:28:32.650Z,1.20
2022-09-15T16:31:00.664Z,1.30
2022-09-15T16:33:28.735Z,1.20
2022-09-15T16:36:06.607Z,1.10
2022-09-15T16:38:36.277Z,1.10
2022-09-15T16:41:11.023Z,1.40
2022-09-15T16:43:39.007Z,1.40
2022-09-15T16:46:11.536Z,1.50
2022-09-15T16:48:41.482Z,1.60
2022-09-15T16:51:31.630Z,1.90
2022-09-15T16:54:00.253Z,1.50
2022-09-15T16:56:28.636Z,1.30
2022-09-15T16:59:00.102Z,1.30
2022-09-15T17:01:29.078Z,1.20
2022-09-15T17:03:57.759Z,1.30
2022-09-15T17:06:25.802Z,1.70
2022-09-15T17:08:54.432Z,1.20
2022-09-15T17:11:25.352Z,1.50
2022-09-15T17:13:53.711Z,1.70
2022-09-15T17:16:22.175Z,1.60
2022-09-15T17:18:50.381Z,2.10
2022-09-15T17:21:20.109Z,1.90
2022-09-15T17:23:49.887Z,1.90
2022-09-15T17:26:21.463Z,1.90
2022-09-15T17:28:51.167Z,2.30
2022-09-15T17:31:22.157Z,2.50
2022-09-15T17:33:51.010Z,2.20
2022-09-15T17:36:19.164Z,2.60
2022-09-15T17:38:49.118Z,2.00
2022-09-15T17:41:20.019Z,2.20
2022-09-15T17:43:49.508Z,2.80
2022-09-15T17:46:17.509Z,2.50
2022-09-15T17:48:45.662Z,2.80
2022-09-15T17:51:19.820Z,2.50
2022-09-15T17:53:48.031Z,2.80
2022-09-15T17:56:16.425Z,2.80
2022-09-15T17:58:45.496Z,3.00
2022-09-15T18:01:14.916Z,2.60
2022-09-15T18:03:45.216Z,3.00
2022-09-15T18:06:14.138Z,2.80
2022-09-15T18:08:42.204Z,3.20
2022-09-15T18:11:13.350Z,3.00
2022-09-15T18:13:41.993Z,3.90
2022-09-15T18:16:14.606Z,3.00
2022-09-15T18:18:43.200Z,3.00
2022-09-15T18:21:29.385Z,2.50
2022-09-15T18:23:57.459Z,3.30
2022-09-15T18:26:26.798Z,2.90
2022-09-15T18:28:56.331Z,2.70
2022-09-15T18:31:24.992Z,2.50
2022-09-15T18:33:53.444Z,2.60
2022-09-15T18:36:21.827Z,2.90
2022-09-15T18:38:53.290Z,2.60
2022-09-15T18:41:21.529Z,4.10
2022-09-15T18:43:49.824Z,4.90
2022-09-15T18:46:18.633Z,5.40
2022-09-15T18:48:47.073Z,6.10
2022-09-15T18:51:23.871Z,6.40
2022-09-15T18:53:57.677Z,12.20
2022-09-15T18:56:25.731Z,12.10
2022-09-15T18:58:55.124Z,11.10
2022-09-15T19:01:24.400Z,9.20
2022-09-15T19:03:52.389Z,8.10
2022-09-15T19:06:20.667Z,3.30
2022-09-15T19:08:49.066Z,4.30
2022-09-15T19:11:17.878Z,3.30
2022-09-15T19:13:46.420Z,2.40
2022-09-15T19:16:14.516Z,2.60
2022-09-15T19:18:45.128Z,2.60
2022-09-15T19:21:13.290Z,2.40
2022-09-15T19:23:41.259Z,2.80
2022-09-15T19:26:14.039Z,2.60
2022-09-15T19:28:44.520Z,2.00
2022-09-15T19:31:13.872Z,2.40
2022-09-15T19:33:42.755Z,2.30
2022-09-15T19:36:27.540Z,2.50
2022-09-15T19:39:00.328Z,1.70
2022-09-15T19:41:28.945Z,1.90
2022-09-15T19:43:57.773Z,2.20
2022-09-15T19:46:26.082Z,2.30
2022-09-15T19:48:55.575Z,2.00
2022-09-15T19:51:24.237Z,1.90
2022-09-15T19:53:56.520Z,2.00
2022-09-15T19:56:26.459Z,2.30
2022-09-15T19:58:56.585Z,2.20
2022-09-15T20:01:28.013Z,1.90
2022-09-15T20:06:42.356Z,2.30
2022-09-15T20:09:10.692Z,2.60
2022-09-15T20:11:38.684Z,2.20
2022-09-15T20:14:07.902Z,2.50
2022-09-15T20:16:35.889Z,2.30
2022-09-15T20:19:05.025Z,2.20
2022-09-15T20:21:49.665Z,2.00
2022-09-15T20:24:20.587Z,2.20
2022-09-15T20:26:48.742Z,2.30
2022-09-15T20:29:17.566Z,2.30
2022-09-15T20:31:47.022Z,2.40
2022-09-15T20:34:15.472Z,2.00
2022-09-15T20:36:44.721Z,2.10
2022-09-15T20:39:15.535Z,2.20
2022-09-15T20:41:46.985Z,2.50
2022-09-15T20:44:15.866Z,2.20
2022-09-15T20:46:44.456Z,2.00
2022-09-15T20:49:12.768Z,2.10
2022-09-15T20:51:40.903Z,2.20
2022-09-15T20:54:11.041Z,2.10
2022-09-15T20:56:39.197Z,2.40
2022-09-15T20:59:10.622Z,2.40
2022-09-15T21:01:40.120Z,2.10
2022-09-15T21:04:10.163Z,2.20
2022-09-15T21:06:39.291Z,2.10
2022-09-15T21:09:07.555Z,2.30
2022-09-15T21:11:36.059Z,2.20
2022-09-15T21:14:04.478Z,2.40
2022-09-15T21:16:35.176Z,2.30
2022-09-15T21:19:03.709Z,2.40
2022-09-15T21:21:33.735Z,2.20
2022-09-15T21:24:07.645Z,2.30
2022-09-15T21:27:01.101Z,2.30
2022-09-15T21:29:30.166Z,2.60
2022-09-15T21:31:58.309Z,2.60
2022-09-15T21:34:26.582Z,2.90
2022-09-15T21:36:54.924Z,3.00
2022-09-15T21:39:23.401Z,2.50
2022-09-15T21:41:51.472Z,2.60
2022-09-15T21:44:19.743Z,2.80
2022-09-15T21:46:48.432Z,2.10
2022-09-15T21:49:18.249Z,2.30
2022-09-15T21:51:46.622Z,2.60
2022-09-15T21:54:15.311Z,2.30
2022-09-15T21:56:43.580Z,2.20
2022-09-15T21:59:11.871Z,2.40
2022-09-15T22:01:40.738Z,2.10
2022-09-15T22:04:10.631Z,2.10
2022-09-15T22:06:40.791Z,2.50
2022-09-15T22:09:13.358Z,2.10
2022-09-15T22:11:42.040Z,2.20
2022-09-15T22:14:10.730Z,2.20
2022-09-15T22:16:40.222Z,2.20
2022-09-15T22:19:11.271Z,2.30
2022-09-15T22:21:42.033Z,2.20
2022-09-15T22:24:13.569Z,2.10
2022-09-15T22:26:43.015Z,2.00
2022-09-15T22:29:11.647Z,2.10
2022-09-15T22:31:40.976Z,2.10
2022-09-15T22:34:09.120Z,2.30
2022-09-15T22:36:37.182Z,2.50
2022-09-15T22:39:06.897Z,1.90
2022-09-15T22:41:38.804Z,2.30
2022-09-15T22:44:13.778Z,2.30
2022-09-15T22:46:42.061Z,2.10
2022-09-15T22:49:10.139Z,2.30
2022-09-15T22:51:38.200Z,2.10
2022-09-15T22:54:06.474Z,2.10
2022-09-15T22:56:34.657Z,1.90
2022-09-15T22:59:03.126Z,2.40
2022-09-15T23:01:31.226Z,2.00
2022-09-15T23:04:02.038Z,2.10
2022-09-15T23:06:33.077Z,1.70
2022-09-15T23:09:04.983Z,2.00
2022-09-15T23:11:33.885Z,2.40
2022-09-15T23:14:02.411Z,1.70
2022-09-15T23:16:31.064Z,2.00
2022-09-15T23:19:00.005Z,1.80
2022-09-15T23:21:28.562Z,2.10
2022-09-15T23:23:56.840Z,2.00
2022-09-15T23:26:26.169Z,2.10
2022-09-15T23:28:54.772Z,2.30
2022-09-15T23:31:22.929Z,2.70
2022-09-15T23:33:51.071Z,2.20
2022-09-15T23:36:19.962Z,1.80
2022-09-15T23:38:49.581Z,2.00
2022-09-15T23:41:18.806Z,2.10
2022-09-15T23:43:47.550Z,2.40
2022-09-15T23:46:17.681Z,1.90
2022-09-15T23:48:45.945Z,2.30
2022-09-15T23:51:14.221Z,2.00
2022-09-15T23:53:42.526Z,2.00
2022-09-15T23:56:10.567Z,1.90
2022-09-15T23:58:39.047Z,2.10
